createdAt,value
2019-03-20T00:02:13.188Z,5.83
2019-03-20T00:04:49.641Z,6.25
2019-03-20T00:07:15.856Z,5.80
2019-03-20T00:09:46.213Z,5.35
2019-03-20T00:12:16.564Z,5.65
2019-03-20T00:14:47.284Z,5.95
2019-03-20T00:17:18.038Z,6.17
2019-03-20T00:19:48.802Z,5.20
2019-03-20T00:22:19.154Z,5.72
2019-03-20T00:24:49.876Z,5.87
2019-03-20T00:27:20.241Z,6.08
2019-03-20T00:29:50.905Z,6.92
2019-03-20T00:32:21.740Z,6.28
2019-03-20T00:35:00.500Z,5.47
2019-03-20T00:37:24.656Z,5.40
2019-03-20T00:39:55.016Z,5.33
2019-03-20T00:42:25.337Z,4.58
2019-03-20T00:44:56.062Z,4.85
2019-03-20T00:47:26.668Z,4.72
2019-03-20T00:49:58.095Z,4.08
2019-03-20T00:52:29.147Z,4.60
2019-03-20T00:54:59.785Z,4.03
2019-03-20T00:57:30.476Z,4.90
2019-03-20T01:00:01.196Z,4.60
2019-03-20T01:02:31.541Z,4.45
2019-03-20T01:05:12.227Z,4.42
2019-03-20T01:07:34.403Z,5.00
2019-03-20T01:10:11.377Z,4.87
2019-03-20T01:12:41.723Z,4.30
2019-03-20T01:15:12.159Z,3.83
2019-03-20T01:17:43.181Z,4.80
2019-03-20T01:20:22.877Z,4.60
2019-03-20T01:22:53.621Z,4.95
2019-03-20T01:25:24.012Z,4.33
2019-03-20T01:27:54.337Z,4.67
2019-03-20T01:30:36.665Z,5.03
2019-03-20T01:33:11.038Z,5.10
2019-03-20T01:35:42.058Z,4.95
2019-03-20T01:38:12.691Z,4.80
2019-03-20T01:40:43.097Z,4.50
2019-03-20T01:43:13.816Z,4.22
2019-03-20T01:45:44.433Z,4.25
2019-03-20T01:48:14.799Z,4.70
2019-03-20T01:50:45.130Z,4.10
2019-03-20T01:53:15.896Z,3.90
2019-03-20T01:55:46.531Z,5.00
2019-03-20T01:58:17.287Z,4.03
2019-03-20T02:00:48.010Z,5.37
2019-03-20T02:03:18.498Z,4.35
2019-03-20T02:05:49.165Z,3.62
2019-03-20T02:08:19.514Z,4.45
2019-03-20T02:10:49.878Z,3.75
2019-03-20T02:13:20.500Z,4.35
2019-03-20T02:15:51.394Z,4.75
2019-03-20T02:18:22.463Z,4.37
2019-03-20T02:20:53.480Z,3.70
2019-03-20T02:23:24.110Z,4.15
2019-03-20T02:25:55.163Z,3.65
2019-03-20T02:28:25.796Z,4.40
2019-03-20T02:30:56.146Z,3.72
2019-03-20T02:33:26.479Z,3.30
2019-03-20T02:35:56.858Z,4.67
2019-03-20T02:38:27.233Z,5.00
2019-03-20T02:40:57.596Z,4.58
2019-03-20T02:43:27.926Z,4.72
2019-03-20T02:45:58.257Z,4.60
2019-03-20T02:48:29.331Z,4.55
2019-03-20T02:50:59.648Z,4.37
2019-03-20T02:53:30.391Z,3.55
2019-03-20T02:56:01.027Z,3.83
2019-03-20T02:58:31.662Z,4.83
2019-03-20T03:01:02.369Z,3.25
2019-03-20T03:03:33.428Z,3.90
2019-03-20T03:06:07.355Z,5.75
2019-03-20T03:08:35.845Z,3.30
2019-03-20T03:11:07.120Z,3.95
2019-03-20T03:13:37.493Z,3.95
2019-03-20T03:16:07.821Z,3.35
2019-03-20T03:18:38.448Z,3.80
2019-03-20T03:21:08.922Z,3.65
2019-03-20T03:23:40.066Z,4.55
2019-03-20T03:26:10.683Z,3.45
2019-03-20T03:28:41.409Z,3.12
2019-03-20T03:31:12.212Z,3.83
2019-03-20T03:33:42.887Z,3.60
2019-03-20T03:36:21.349Z,4.28
2019-03-20T03:38:46.203Z,3.85
2019-03-20T03:41:16.672Z,4.03
2019-03-20T03:43:47.040Z,3.80
2019-03-20T03:46:18.126Z,3.60
2019-03-20T03:48:48.837Z,3.20
2019-03-20T03:51:19.557Z,3.52
2019-03-20T03:53:50.192Z,3.70
2019-03-20T03:56:21.443Z,3.45
2019-03-20T03:58:52.096Z,3.65
2019-03-20T04:01:22.702Z,3.67
2019-03-20T04:03:53.664Z,3.72
2019-03-20T04:06:34.809Z,3.45
2019-03-20T04:08:56.861Z,3.58
2019-03-20T04:11:27.192Z,3.92
2019-03-20T04:13:58.302Z,4.40
2019-03-20T04:16:29.015Z,4.45
2019-03-20T04:18:59.369Z,4.95
2019-03-20T04:21:29.720Z,4.00
2019-03-20T04:24:00.343Z,4.60
2019-03-20T04:26:30.678Z,3.55
2019-03-20T04:29:01.043Z,3.60
2019-03-20T04:31:32.101Z,4.60
2019-03-20T04:34:02.868Z,3.52
2019-03-20T04:36:33.265Z,4.47
2019-03-20T04:39:05.159Z,4.05
2019-03-20T04:41:35.938Z,3.05
2019-03-20T04:44:06.274Z,3.45
2019-03-20T04:46:36.978Z,3.60
2019-03-20T04:49:07.338Z,3.10
2019-03-20T04:51:38.060Z,4.70
2019-03-20T04:54:08.671Z,3.70
2019-03-20T04:56:39.031Z,3.77
2019-03-20T04:59:09.377Z,3.37
2019-03-20T05:01:39.983Z,3.47
2019-03-20T05:04:11.048Z,3.60
2019-03-20T05:06:41.745Z,4.45
2019-03-20T05:09:12.301Z,4.22
2019-03-20T05:11:42.656Z,3.98
2019-03-20T05:14:13.027Z,3.20
2019-03-20T05:16:43.730Z,3.15
2019-03-20T05:19:14.401Z,3.27
2019-03-20T05:21:45.042Z,3.85
2019-03-20T05:24:15.373Z,3.75
2019-03-20T05:26:46.125Z,3.90
2019-03-20T05:29:16.497Z,3.52
2019-03-20T05:31:47.158Z,3.42
2019-03-20T05:34:17.813Z,3.58
2019-03-20T05:36:48.951Z,3.55
2019-03-20T05:39:20.241Z,2.95
2019-03-20T05:41:50.572Z,3.10
2019-03-20T05:44:21.332Z,3.55
2019-03-20T05:46:51.654Z,4.30
2019-03-20T05:49:22.336Z,2.67
2019-03-20T05:52:04.970Z,3.17
2019-03-20T05:54:35.348Z,3.25
2019-03-20T05:57:06.115Z,4.65
2019-03-20T05:59:36.828Z,3.72
2019-03-20T06:02:07.611Z,2.83
2019-03-20T06:04:38.296Z,3.25
2019-03-20T06:07:08.955Z,3.47
2019-03-20T06:09:40.021Z,2.75
2019-03-20T06:12:11.031Z,3.25
2019-03-20T06:14:41.384Z,3.08
2019-03-20T06:17:12.107Z,3.15
2019-03-20T06:19:42.569Z,3.37
2019-03-20T06:22:12.934Z,3.35
2019-03-20T06:24:43.685Z,2.92
2019-03-20T06:27:14.327Z,3.12
2019-03-20T06:29:44.953Z,3.47
2019-03-20T06:32:15.548Z,2.98
2019-03-20T06:34:45.906Z,3.47
2019-03-20T06:37:16.342Z,3.37
2019-03-20T06:39:47.088Z,3.45
2019-03-20T06:42:17.434Z,3.05
2019-03-20T06:44:47.957Z,2.62
2019-03-20T06:47:18.599Z,2.92
2019-03-20T06:49:48.944Z,2.83
2019-03-20T06:52:19.292Z,3.27
2019-03-20T06:54:49.682Z,3.62
2019-03-20T06:57:20.006Z,3.10
2019-03-20T07:00:31.840Z,3.55
2019-03-20T07:03:09.879Z,3.20
2019-03-20T07:06:05.828Z,3.00
2019-03-20T07:08:49.911Z,3.67
2019-03-20T07:11:19.922Z,4.20
2019-03-20T07:13:50.746Z,4.15
2019-03-20T07:16:21.475Z,4.00
2019-03-20T07:18:52.080Z,3.30
2019-03-20T07:21:22.433Z,3.30
2019-03-20T07:23:52.812Z,3.83
2019-03-20T07:26:23.512Z,3.30
2019-03-20T07:28:54.225Z,3.45
2019-03-20T07:31:24.839Z,2.80
2019-03-20T07:33:55.495Z,3.95
2019-03-20T07:36:25.829Z,3.08
2019-03-20T07:38:56.967Z,2.75
2019-03-20T07:41:27.681Z,2.80
2019-03-20T07:43:58.045Z,2.50
2019-03-20T07:46:28.777Z,2.67
2019-03-20T07:48:59.127Z,2.70
2019-03-20T07:51:29.463Z,3.10
2019-03-20T07:54:00.320Z,3.25
2019-03-20T07:56:32.666Z,2.58
2019-03-20T07:59:03.031Z,2.87
2019-03-20T08:01:33.828Z,2.30
2019-03-20T08:04:04.246Z,2.30
2019-03-20T08:06:35.006Z,2.70
2019-03-20T08:09:07.717Z,2.80
2019-03-20T08:11:38.355Z,3.60
2019-03-20T08:14:09.490Z,2.87
2019-03-20T08:16:40.296Z,3.12
2019-03-20T08:19:10.643Z,3.70
2019-03-20T08:21:41.407Z,3.52
2019-03-20T08:24:12.043Z,3.10
2019-03-20T08:26:43.086Z,3.10
2019-03-20T08:29:13.452Z,3.72
2019-03-20T08:32:03.202Z,3.10
2019-03-20T08:34:33.567Z,3.83
2019-03-20T08:37:05.396Z,3.00
2019-03-20T08:39:36.173Z,2.70
2019-03-20T08:42:06.489Z,3.10
2019-03-20T08:44:36.873Z,3.10
2019-03-20T08:47:07.835Z,2.90
2019-03-20T08:49:38.187Z,2.50
2019-03-20T08:52:08.941Z,3.52
2019-03-20T08:54:39.748Z,2.80
2019-03-20T08:57:10.377Z,3.22
2019-03-20T08:59:41.014Z,2.47
2019-03-20T09:02:11.407Z,3.55
2019-03-20T09:04:42.048Z,2.75
2019-03-20T09:07:12.789Z,3.00
2019-03-20T09:09:43.475Z,3.30
2019-03-20T09:12:14.166Z,2.70
2019-03-20T09:14:44.542Z,3.02
2019-03-20T09:17:14.883Z,2.75
2019-03-20T09:19:45.977Z,2.58
2019-03-20T09:22:16.306Z,3.10
2019-03-20T09:24:46.939Z,2.95
2019-03-20T09:27:17.348Z,2.60
2019-03-20T09:29:47.723Z,2.60
2019-03-20T09:32:18.525Z,2.90
2019-03-20T09:34:48.906Z,3.47
2019-03-20T09:37:19.298Z,2.83
2019-03-20T09:39:50.130Z,2.15
2019-03-20T09:42:20.577Z,2.58
2019-03-20T09:44:51.706Z,1.97
2019-03-20T09:47:22.835Z,2.50
2019-03-20T09:49:53.238Z,3.00
2019-03-20T09:52:23.619Z,2.90
2019-03-20T09:54:54.021Z,2.70
2019-03-20T09:57:24.386Z,2.53
2019-03-20T09:59:55.632Z,2.90
2019-03-20T10:02:26.093Z,3.50
2019-03-20T10:04:56.491Z,2.03
2019-03-20T10:07:27.286Z,2.90
2019-03-20T10:09:57.713Z,2.23
2019-03-20T10:12:28.097Z,2.60
2019-03-20T10:14:58.796Z,3.30
2019-03-20T10:17:29.224Z,3.10
2019-03-20T10:20:00.354Z,2.80
2019-03-20T10:22:31.089Z,3.20
2019-03-20T10:25:02.148Z,3.40
2019-03-20T10:27:32.759Z,4.90
2019-03-20T10:30:03.448Z,4.03
2019-03-20T10:32:33.780Z,3.77
2019-03-20T10:35:06.873Z,3.90
2019-03-20T10:37:37.569Z,4.40
2019-03-20T10:40:24.704Z,4.30
2019-03-20T10:42:55.083Z,3.47
2019-03-20T10:45:25.450Z,3.20
2019-03-20T10:47:56.215Z,3.80
2019-03-20T10:50:30.760Z,3.40
2019-03-20T10:53:01.426Z,2.70
2019-03-20T10:55:32.213Z,3.60
2019-03-20T10:58:02.937Z,4.20
2019-03-20T11:00:33.294Z,4.20
2019-03-20T11:03:03.654Z,4.70
2019-03-20T11:05:34.037Z,4.80
2019-03-20T11:08:04.674Z,4.03
2019-03-20T11:10:35.213Z,6.20
2019-03-20T11:13:05.880Z,5.10
2019-03-20T11:15:36.536Z,5.30
2019-03-20T11:18:06.912Z,5.43
2019-03-20T11:20:37.984Z,5.10
2019-03-20T11:23:08.423Z,5.03
2019-03-20T11:25:38.792Z,6.33
2019-03-20T11:28:09.481Z,6.60
2019-03-20T11:30:40.114Z,5.27
2019-03-20T11:33:10.824Z,5.20
2019-03-20T11:35:42.641Z,4.60
2019-03-20T11:38:13.442Z,6.10
2019-03-20T11:40:43.836Z,5.97
2019-03-20T11:43:14.879Z,6.50
2019-03-20T11:45:45.591Z,4.90
2019-03-20T11:48:17.253Z,4.80
2019-03-20T11:50:47.988Z,5.30
2019-03-20T11:53:18.684Z,5.67
2019-03-20T11:55:49.309Z,4.90
2019-03-20T11:58:19.965Z,6.17
2019-03-20T12:00:50.590Z,4.80
2019-03-20T12:03:20.947Z,5.07
2019-03-20T12:05:51.309Z,4.90
2019-03-20T12:08:21.713Z,5.17
2019-03-20T12:10:52.701Z,5.00
2019-03-20T12:13:23.404Z,5.28
2019-03-20T12:15:55.024Z,5.07
2019-03-20T12:18:26.329Z,4.10
2019-03-20T12:20:56.731Z,4.80
2019-03-20T12:23:27.092Z,4.83
2019-03-20T12:25:57.845Z,4.63
2019-03-20T12:28:28.836Z,4.90
2019-03-20T12:30:59.468Z,5.30
2019-03-20T12:33:30.087Z,4.97
2019-03-20T12:36:00.811Z,4.93
2019-03-20T12:38:32.037Z,6.00
2019-03-20T12:41:02.979Z,5.87
2019-03-20T12:43:34.109Z,5.30
2019-03-20T12:46:04.858Z,5.37
2019-03-20T12:48:35.232Z,5.70
2019-03-20T12:51:05.596Z,5.27
2019-03-20T12:53:36.721Z,5.50
2019-03-20T12:56:07.088Z,5.17
2019-03-20T12:58:37.467Z,5.60
2019-03-20T13:01:08.487Z,6.73
2019-03-20T13:03:38.866Z,5.70
2019-03-20T13:06:09.302Z,6.53
2019-03-20T13:08:40.113Z,6.20
2019-03-20T13:11:10.815Z,5.43
2019-03-20T13:13:41.632Z,5.80
2019-03-20T13:16:12.033Z,6.07
2019-03-20T13:18:42.393Z,6.37
2019-03-20T13:21:13.451Z,6.27
2019-03-20T13:23:44.082Z,6.40
2019-03-20T13:26:14.457Z,5.73
2019-03-20T13:28:45.081Z,6.70
2019-03-20T13:31:23.801Z,8.10
2019-03-20T13:33:54.253Z,7.03
2019-03-20T13:36:25.237Z,8.30
2019-03-20T13:38:56.567Z,8.63
2019-03-20T13:41:27.386Z,8.10
2019-03-20T13:43:57.777Z,9.03
2019-03-20T13:46:28.409Z,7.30
2019-03-20T13:48:58.829Z,7.67
2019-03-20T13:51:29.189Z,7.60
2019-03-20T13:53:59.560Z,8.07
2019-03-20T13:56:30.270Z,7.53
2019-03-20T13:59:00.960Z,8.03
2019-03-20T14:01:31.276Z,6.63
2019-03-20T14:04:02.312Z,9.40
2019-03-20T14:06:32.933Z,9.40
2019-03-20T14:09:04.506Z,9.77
2019-03-20T14:11:34.873Z,9.40
2019-03-20T14:14:05.510Z,8.90
2019-03-20T14:16:35.850Z,9.57
2019-03-20T14:19:06.255Z,9.10
2019-03-20T14:21:36.630Z,8.03
2019-03-20T14:24:06.994Z,9.40
2019-03-20T14:26:37.783Z,9.27
2019-03-20T14:29:08.147Z,9.10
2019-03-20T14:31:38.509Z,8.80
2019-03-20T14:34:08.887Z,9.37
2019-03-20T14:36:39.348Z,8.67
2019-03-20T14:39:10.061Z,8.30
2019-03-20T14:41:40.816Z,9.20
2019-03-20T14:44:11.187Z,10.67
2019-03-20T14:46:41.553Z,8.93
2019-03-20T14:49:12.290Z,10.33
2019-03-20T14:51:42.733Z,10.90
2019-03-20T14:54:13.235Z,10.00
2019-03-20T14:56:43.977Z,11.13
2019-03-20T14:59:14.365Z,10.10
2019-03-20T15:01:44.778Z,10.50
2019-03-20T15:04:15.491Z,11.00
2019-03-20T15:06:46.065Z,10.63
2019-03-20T15:09:18.279Z,10.53
2019-03-20T15:11:49.019Z,11.27
2019-03-20T15:14:19.837Z,11.13
2019-03-20T15:16:50.517Z,10.70
2019-03-20T15:19:20.884Z,11.77
2019-03-20T15:21:51.227Z,11.67
2019-03-20T15:24:22.228Z,11.60
2019-03-20T15:26:52.903Z,11.63
2019-03-20T15:29:23.363Z,11.57
2019-03-20T15:31:53.706Z,10.67
2019-03-20T15:34:24.420Z,11.00
2019-03-20T15:36:55.532Z,10.30
2019-03-20T15:39:25.890Z,11.23
2019-03-20T15:41:56.622Z,12.07
2019-03-20T15:44:27.002Z,12.00
2019-03-20T15:46:57.369Z,11.90
2019-03-20T15:49:27.840Z,12.80
2019-03-20T15:51:58.474Z,12.83
2019-03-20T15:54:29.420Z,12.87
2019-03-20T15:56:59.826Z,10.90
2019-03-20T15:59:30.201Z,10.60
2019-03-20T16:02:00.874Z,11.73
2019-03-20T16:04:31.552Z,11.40
2019-03-20T16:07:01.915Z,11.40
2019-03-20T16:09:32.959Z,11.13
2019-03-20T16:12:03.977Z,12.67
2019-03-20T16:14:34.358Z,13.93
2019-03-20T16:17:05.068Z,11.97
2019-03-20T16:19:35.455Z,11.30
2019-03-20T16:22:06.582Z,11.20
2019-03-20T16:24:37.223Z,10.70
2019-03-20T16:27:08.031Z,11.10
2019-03-20T16:29:38.772Z,11.37
2019-03-20T16:32:09.504Z,13.40
2019-03-20T16:34:39.844Z,12.10
2019-03-20T16:37:10.586Z,12.23
2019-03-20T16:39:40.993Z,12.00
2019-03-20T16:42:11.735Z,11.43
2019-03-20T16:44:42.396Z,11.43
2019-03-20T16:47:12.742Z,11.70
2019-03-20T16:49:43.125Z,13.30
2019-03-20T16:52:15.580Z,12.67
2019-03-20T16:54:45.936Z,13.50
2019-03-20T16:57:16.685Z,13.10
2019-03-20T16:59:47.057Z,12.60
2019-03-20T17:02:17.419Z,13.40
2019-03-20T17:04:48.475Z,11.90
2019-03-20T17:07:19.208Z,12.00
2019-03-20T17:09:49.925Z,11.90
2019-03-20T17:12:20.319Z,11.67
2019-03-20T17:14:50.668Z,12.23
2019-03-20T17:17:21.716Z,13.00
2019-03-20T17:19:52.459Z,13.20
2019-03-20T17:22:23.598Z,13.37
2019-03-20T17:24:54.344Z,13.33
2019-03-20T17:27:24.861Z,13.13
2019-03-20T17:29:55.627Z,13.80
2019-03-20T17:32:26.462Z,14.27
2019-03-20T17:34:56.833Z,13.50
2019-03-20T17:37:27.217Z,15.10
2019-03-20T17:39:57.846Z,13.53
2019-03-20T17:42:28.939Z,14.60
2019-03-20T17:44:59.493Z,14.60
2019-03-20T17:47:30.136Z,16.27
2019-03-20T17:50:00.914Z,15.03
2019-03-20T17:52:31.916Z,14.17
2019-03-20T17:55:02.355Z,14.03
2019-03-20T17:57:52.135Z,13.60
2019-03-20T18:00:32.968Z,45.90
2019-03-20T18:03:03.349Z,16.60
2019-03-20T18:05:33.753Z,14.87
2019-03-20T18:08:05.241Z,14.07
2019-03-20T18:10:35.638Z,15.43
2019-03-20T18:13:07.805Z,14.50
2019-03-20T18:15:38.443Z,14.10
2019-03-20T18:18:09.299Z,14.50
2019-03-20T18:20:39.671Z,14.57
2019-03-20T18:23:10.386Z,14.17
2019-03-20T18:25:41.106Z,15.00
2019-03-20T18:28:11.828Z,12.50
2019-03-20T18:30:43.639Z,16.00
2019-03-20T18:33:13.991Z,15.97
2019-03-20T18:35:44.765Z,15.30
2019-03-20T18:38:15.521Z,14.60
2019-03-20T18:40:45.909Z,14.50
2019-03-20T18:43:16.355Z,15.40
2019-03-20T18:45:46.751Z,15.60
2019-03-20T18:48:17.141Z,15.40
2019-03-20T18:50:47.835Z,14.93
2019-03-20T18:53:18.593Z,14.87
2019-03-20T18:55:48.968Z,16.80
2019-03-20T18:58:19.533Z,17.90
2019-03-20T19:00:50.316Z,18.73
2019-03-20T19:03:28.209Z,18.90
2019-03-20T19:06:09.564Z,19.10
2019-03-20T19:08:40.040Z,16.00
2019-03-20T19:11:10.424Z,14.60
2019-03-20T19:13:40.861Z,13.57
2019-03-20T19:16:11.218Z,12.83
2019-03-20T19:18:41.610Z,12.90
2019-03-20T19:21:12.750Z,12.50
2019-03-20T19:23:43.378Z,9.67
2019-03-20T19:26:13.733Z,10.43
2019-03-20T19:28:44.200Z,6.40
2019-03-20T19:31:14.912Z,7.00
2019-03-20T19:33:45.495Z,5.33
2019-03-20T19:36:16.236Z,5.97
2019-03-20T19:38:46.591Z,7.13
2019-03-20T19:41:17.329Z,5.50
2019-03-20T19:43:47.724Z,5.10
2019-03-20T19:46:18.085Z,5.17
2019-03-20T19:48:48.685Z,5.47
2019-03-20T19:51:19.073Z,6.53
2019-03-20T19:53:49.413Z,5.37
2019-03-20T19:56:19.853Z,5.10
2019-03-20T19:58:50.246Z,5.43
2019-03-20T20:01:20.681Z,5.17
2019-03-20T20:03:51.567Z,5.00
2019-03-20T20:06:22.690Z,5.60
2019-03-20T20:08:53.029Z,4.93
2019-03-20T20:11:23.392Z,4.63
2019-03-20T20:13:54.134Z,5.33
2019-03-20T20:16:24.449Z,4.97
2019-03-20T20:18:54.786Z,4.70
2019-03-20T20:21:25.535Z,4.20
2019-03-20T20:23:55.896Z,4.97
2019-03-20T20:26:26.589Z,4.90
2019-03-20T20:28:57.232Z,5.37
2019-03-20T20:31:27.956Z,5.80
2019-03-20T20:33:58.321Z,6.07
2019-03-20T20:36:28.782Z,5.77
2019-03-20T20:38:59.515Z,5.90
2019-03-20T20:41:29.847Z,6.50
2019-03-20T20:44:01.031Z,5.27
2019-03-20T20:46:31.849Z,4.80
2019-03-20T20:49:02.788Z,5.70
2019-03-20T20:51:33.488Z,4.90
2019-03-20T20:54:03.865Z,5.10
2019-03-20T20:56:34.570Z,5.03
2019-03-20T20:59:05.320Z,4.57
2019-03-20T21:01:35.690Z,5.30
2019-03-20T21:04:06.023Z,5.40
2019-03-20T21:06:36.456Z,4.70
2019-03-20T21:09:08.355Z,5.10
2019-03-20T21:11:38.702Z,4.70
2019-03-20T21:14:09.735Z,5.13
2019-03-20T21:16:40.101Z,5.40
2019-03-20T21:19:35.824Z,5.80
2019-03-20T21:22:32.521Z,5.10
2019-03-20T21:25:03.238Z,5.50
2019-03-20T21:27:53.625Z,5.00
2019-03-20T21:30:40.529Z,6.13
2019-03-20T21:33:38.700Z,6.30
2019-03-20T21:37:04.804Z,6.10
2019-03-20T21:39:35.147Z,4.87
2019-03-20T21:42:23.191Z,5.57
2019-03-20T21:45:10.373Z,6.00
2019-03-20T21:47:39.399Z,6.10
2019-03-20T21:50:40.644Z,5.63
2019-03-20T21:53:16.287Z,5.67
2019-03-20T21:56:20.634Z,5.63
2019-03-20T21:59:22.079Z,7.30
2019-03-20T22:02:43.869Z,7.00
2019-03-20T22:05:31.145Z,6.97
2019-03-20T22:08:01.507Z,7.47
2019-03-20T22:11:18.566Z,7.73
2019-03-20T22:13:53.800Z,7.47
2019-03-20T22:17:00.868Z,7.00
2019-03-20T22:19:42.012Z,8.17
2019-03-20T22:22:26.775Z,6.90
2019-03-20T22:25:21.848Z,7.93
2019-03-20T22:28:23.217Z,8.63
2019-03-20T22:30:53.559Z,8.13
2019-03-20T22:34:19.378Z,8.77
2019-03-20T22:36:49.749Z,10.30
2019-03-20T22:40:00.081Z,9.83
2019-03-20T22:42:56.082Z,10.53
2019-03-20T22:46:05.064Z,13.93
2019-03-20T22:49:25.558Z,13.60
2019-03-20T22:52:29.799Z,16.13
2019-03-20T22:55:39.984Z,16.63
2019-03-20T22:58:27.539Z,15.93
2019-03-20T23:01:29.120Z,14.90
2019-03-20T23:04:16.582Z,13.40
2019-03-20T23:06:46.943Z,15.13
2019-03-20T23:09:17.324Z,16.33
2019-03-20T23:11:47.750Z,15.97
2019-03-20T23:14:18.102Z,16.40
2019-03-20T23:16:48.473Z,14.70
2019-03-20T23:19:18.853Z,15.20
2019-03-20T23:21:49.744Z,14.63
2019-03-20T23:24:20.740Z,14.10
2019-03-20T23:26:51.144Z,14.87
2019-03-20T23:29:21.992Z,15.37
2019-03-20T23:31:52.985Z,15.23
2019-03-20T23:34:23.619Z,13.80
2019-03-20T23:36:53.966Z,14.93
2019-03-20T23:39:24.327Z,14.37
2019-03-20T23:41:55.085Z,16.27
2019-03-20T23:44:25.752Z,14.20
2019-03-20T23:46:57.009Z,13.33
2019-03-20T23:49:27.721Z,15.37
2019-03-20T23:51:58.071Z,15.90
2019-03-20T23:54:33.551Z,16.93
2019-03-20T23:57:04.354Z,13.80
2019-03-20T23:59:34.992Z,16.60
